Pacific Solarelle — V7UB8 — position and weather

sailwx.info

Track history (hours):
 
Tides and Currents Weather Stations Pressure Air Temp Water Temp Dewpoint Dewpoint Depression Visibility Wind Speed Wind Dir Waves Ship Positions

Pacific Solarelle

Last reported at 2017-May-30 05:11 UTC. Time now 2017-May-30 07:28 UTC.
Position N 31°05' E 032°19'.

Length 180 m; draft 6.8 m.

Type: Tanker. MMSI: 538003925.

Date/timePositionNaut miles runAvg speedWind from/ knotsBaromVisibWave heightAir tempDewpointWater temp
2017-May-30 05:11N 31°05' E 032°19'17 1.6
2017-May-29 18:21N 31°22' E 032°18'0 0.0
2017-May-29 17:57N 31°22' E 032°18'6 1.7
2017-May-29 14:33N 31°27' E 032°19'1 8.4
2017-May-29 14:28N 31°28' E 032°20'2810.7
2017-May-29 11:52N 31°54' E 032°32'513.3
2017-May-29 11:30N 31°58' E 032°30'13 1.2
2017-May-29 01:27N 32°10' E 032°27'0 0.6
2017-May-29 01:00N 32°11' E 032°27'0 0.6
2017-May-29 00:16N 32°11' E 032°27'0 0.6
2017-May-28 23:58N 32°11' E 032°28'1 0.7
2017-May-28 22:29N 32°12' E 032°28'1 0.9
2017-May-28 21:51N 32°13' E 032°28'0 0.9
2017-May-28 21:27N 32°13' E 032°28'0 0.8
2017-May-28 21:00N 32°13' E 032°28'2 2.5
2017-May-28 20:21N 32°13' E 032°26'310.1
2017-May-28 20:00N 32°12' E 032°22'610.9
2017-May-28 19:30N 32°10' E 032°16'7 1.2
2017-May-28 13:49N 32°10' E 032°08'6 0.4
2017-May-28 00:42N 32°15' E 032°10'0 0.4
2017-May-27 23:38N 32°15' E 032°10'0 0.3
2017-May-27 23:30N 32°15' E 032°10'0 0.1
2017-May-27 23:00N 32°15' E 032°11'0 0.8
2017-May-27 22:28N 32°15' E 032°11'9 1.4
2017-May-27 15:54N 32°10' E 032°20'0 1.1
2017-May-27 15:30N 32°10' E 032°20'1 1.1
2017-May-27 15:00N 32°10' E 032°21'1 1.0
2017-May-27 14:00N 32°10' E 032°22'1 1.0
2017-May-27 13:30N 32°10' E 032°22'3 1.0
2017-May-27 10:27N 32°08' E 032°26'1 1.2
2017-May-27 10:00N 32°08' E 032°26'1 1.2
2017-May-27 09:30N 32°07' E 032°26'1 1.2
2017-May-27 09:00N 32°07' E 032°27'1 1.3
2017-May-27 08:30N 32°06' E 032°27'1 1.3
2017-May-27 08:00N 32°06' E 032°27'1 1.3
2017-May-27 07:30N 32°05' E 032°28'1 1.1
2017-May-27 07:00N 32°05' E 032°28'1 1.0
2017-May-27 06:30N 32°04' E 032°28'0 1.0
2017-May-27 06:00N 32°04' E 032°29'1 1.1
2017-May-27 05:30N 32°03' E 032°29'1 1.3
2017-May-27 05:00N 32°03' E 032°29'4 8.5
2017-May-27 04:29N 31°58' E 032°29'3 6.2
2017-May-27 04:00N 31°55' E 032°28'0 0.4
2017-May-27 03:30N 31°56' E 032°28'0 0.3
2017-May-27 03:00N 31°56' E 032°28'0 0.2
2017-May-27 02:30N 31°56' E 032°29'0 0.3
2017-May-27 02:00N 31°56' E 032°29'0 0.4
2017-May-27 01:30N 31°56' E 032°29'0 0.5
2017-May-27 01:00N 31°56' E 032°29'0 0.6
2017-May-27 00:30N 31°56' E 032°30'0 0.7
2017-May-27 00:00N 31°56' E 032°30'0 0.8
2017-May-26 23:30N 31°56' E 032°30'0 0.9
2017-May-26 23:00N 31°56' E 032°31'1 1.0
2017-May-26 22:30N 31°56' E 032°32'1 1.1
2017-May-26 21:58N 31°57' E 032°32'0 1.1
2017-May-26 21:30N 31°57' E 032°33'1 1.2
2017-May-26 20:59N 31°57' E 032°34'1 1.1
2017-May-26 20:19N 31°57' E 032°34'0 1.1
2017-May-26 19:52N 31°57' E 032°35'1 1.0
2017-May-26 18:24N 31°58' E 032°36'0 0.9
2017-May-26 18:00N 31°59' E 032°36'0 0.9
2017-May-26 17:30N 31°59' E 032°37'0 0.8
2017-May-26 17:00N 31°59' E 032°37'0 0.8
2017-May-26 16:30N 31°59' E 032°37'0 0.6
2017-May-26 16:00N 31°60' E 032°38'0 0.4
2017-May-26 15:30N 31°60' E 032°38'0 0.4
2017-May-26 15:00N 32°00' E 032°38'0 0.4
2017-May-26 14:00N 32°00' E 032°38'0 0.3
2017-May-26 13:30N 32°01' E 032°38'0 0.3
2017-May-26 12:11N 32°01' E 032°38'0 0.4
2017-May-26 12:00N 32°01' E 032°38'0 0.4
2017-May-26 11:30N 32°01' E 032°37'0 0.4
2017-May-26 11:00N 32°01' E 032°37'0 0.4
2017-May-26 10:30N 32°01' E 032°37'  
2017-May-22 04:38N 31°28' E 029°54'211.6
2017-May-22 04:30N 31°29' E 029°55'  
Track history (hours):
 
Tides and Currents Weather Stations Pressure Air Temp Water Temp Dewpoint Dewpoint Depression Visibility Wind Speed Wind Dir Waves Ship Positions

Pacific Solarelle

Last reported at 2017-May-30 05:11 UTC. Time now 2017-May-30 07:28 UTC.
Position N 31°05' E 032°19'.

Length 180 m; draft 6.8 m.

Type: Tanker. MMSI: 538003925.

Date/timePositionNaut miles runAvg speedWind from/ knotsBaromVisibWave heightAir tempDewpointWater temp
2017-May-30 05:11N 31°05' E 032°19'17 1.6
2017-May-29 18:21N 31°22' E 032°18'0 0.0
2017-May-29 17:57N 31°22' E 032°18'6 1.7
2017-May-29 14:33N 31°27' E 032°19'1 8.4
2017-May-29 14:28N 31°28' E 032°20'2810.7
2017-May-29 11:52N 31°54' E 032°32'513.3
2017-May-29 11:30N 31°58' E 032°30'13 1.2
2017-May-29 01:27N 32°10' E 032°27'0 0.6
2017-May-29 01:00N 32°11' E 032°27'0 0.6
2017-May-29 00:16N 32°11' E 032°27'0 0.6
2017-May-28 23:58N 32°11' E 032°28'1 0.7
2017-May-28 22:29N 32°12' E 032°28'1 0.9
2017-May-28 21:51N 32°13' E 032°28'0 0.9
2017-May-28 21:27N 32°13' E 032°28'0 0.8
2017-May-28 21:00N 32°13' E 032°28'2 2.5
2017-May-28 20:21N 32°13' E 032°26'310.1
2017-May-28 20:00N 32°12' E 032°22'610.9
2017-May-28 19:30N 32°10' E 032°16'7 1.2
2017-May-28 13:49N 32°10' E 032°08'6 0.4
2017-May-28 00:42N 32°15' E 032°10'0 0.4
2017-May-27 23:38N 32°15' E 032°10'0 0.3
2017-May-27 23:30N 32°15' E 032°10'0 0.1
2017-May-27 23:00N 32°15' E 032°11'0 0.8
2017-May-27 22:28N 32°15' E 032°11'9 1.4
2017-May-27 15:54N 32°10' E 032°20'0 1.1
2017-May-27 15:30N 32°10' E 032°20'1 1.1
2017-May-27 15:00N 32°10' E 032°21'1 1.0
2017-May-27 14:00N 32°10' E 032°22'1 1.0
2017-May-27 13:30N 32°10' E 032°22'3 1.0
2017-May-27 10:27N 32°08' E 032°26'1 1.2
2017-May-27 10:00N 32°08' E 032°26'1 1.2
2017-May-27 09:30N 32°07' E 032°26'1 1.2
2017-May-27 09:00N 32°07' E 032°27'1 1.3
2017-May-27 08:30N 32°06' E 032°27'1 1.3
2017-May-27 08:00N 32°06' E 032°27'1 1.3
2017-May-27 07:30N 32°05' E 032°28'1 1.1
2017-May-27 07:00N 32°05' E 032°28'1 1.0
2017-May-27 06:30N 32°04' E 032°28'0 1.0
2017-May-27 06:00N 32°04' E 032°29'1 1.1
2017-May-27 05:30N 32°03' E 032°29'1 1.3
2017-May-27 05:00N 32°03' E 032°29'4 8.5
2017-May-27 04:29N 31°58' E 032°29'3 6.2
2017-May-27 04:00N 31°55' E 032°28'0 0.4
2017-May-27 03:30N 31°56' E 032°28'0 0.3
2017-May-27 03:00N 31°56' E 032°28'0 0.2
2017-May-27 02:30N 31°56' E 032°29'0 0.3
2017-May-27 02:00N 31°56' E 032°29'0 0.4
2017-May-27 01:30N 31°56' E 032°29'0 0.5
2017-May-27 01:00N 31°56' E 032°29'0 0.6
2017-May-27 00:30N 31°56' E 032°30'0 0.7
2017-May-27 00:00N 31°56' E 032°30'0 0.8
2017-May-26 23:30N 31°56' E 032°30'0 0.9
2017-May-26 23:00N 31°56' E 032°31'1 1.0
2017-May-26 22:30N 31°56' E 032°32'1 1.1
2017-May-26 21:58N 31°57' E 032°32'0 1.1
2017-May-26 21:30N 31°57' E 032°33'1 1.2
2017-May-26 20:59N 31°57' E 032°34'1 1.1
2017-May-26 20:19N 31°57' E 032°34'0 1.1
2017-May-26 19:52N 31°57' E 032°35'1 1.0
2017-May-26 18:24N 31°58' E 032°36'0 0.9
2017-May-26 18:00N 31°59' E 032°36'0 0.9
2017-May-26 17:30N 31°59' E 032°37'0 0.8
2017-May-26 17:00N 31°59' E 032°37'0 0.8
2017-May-26 16:30N 31°59' E 032°37'0 0.6
2017-May-26 16:00N 31°60' E 032°38'0 0.4
2017-May-26 15:30N 31°60' E 032°38'0 0.4
2017-May-26 15:00N 32°00' E 032°38'0 0.4
2017-May-26 14:00N 32°00' E 032°38'0 0.3
2017-May-26 13:30N 32°01' E 032°38'0 0.3
2017-May-26 12:11N 32°01' E 032°38'0 0.4
2017-May-26 12:00N 32°01' E 032°38'0 0.4
2017-May-26 11:30N 32°01' E 032°37'0 0.4
2017-May-26 11:00N 32°01' E 032°37'0 0.4
2017-May-26 10:30N 32°01' E 032°37'  
2017-May-22 04:38N 31°28' E 029°54'211.6
2017-May-22 04:30N 31°29' E 029°55'  

Dump ship's entire track history